X  Lukk Metar værinformasjon om luftfart     LBPD Plovdiv International Airport
Temperatur
13°C Temperatur
9°C Duggpunkt
77% Luftfuktighet



Vind
5 KM/T
3 MPT
1 M/S
3 KNP



170°
S
Nåværende forhold

Stort sett spredte skyer Stort sett spredte skyer
Trykk 1024.04 (hPa) - 30.24 (inHg)
Sikt 6 (mil) - 9.7 (km)
Flyplass
Flyplass-kode LBPD

Plassering: Plovdiv International Airport
Avstand: 14 (km)

Metar:
LBPD 130200Z AUTO 17003KT 140V200 9999 SCT100/// BKN130/// 13/09 Q1024

Tid: 13-04-2024 05:00 EEST